Time;durP1;ratioP1;P1;durP2;ratioP2;P2;SDS_P1;SDS_P2;PMS_P1;PMS_P2;Temp;Humidity;BMP_temperature;BMP_pressure;BME280_temperature;BME280_humidity;BME280_pressure;Samples;Min_cycle;Max_cycle;Signal;HPM_P1;HPM_P2
2023/01/09 00:00:24;;;;;;;8.55;4.57;;;;;;;;;;5021416;28;20056;-66
2023/01/09 00:02:49;;;;;;;8.38;5.07;;;;;;;;;;5020342;28;20091;-66
2023/01/09 00:05:17;;;;;;;9.88;4.95;;;;;;;;;;5021133;28;20073;-67
2023/01/09 00:07:42;;;;;;;7.40;4.47;;;;;;;;;;5020769;28;20053;-67
2023/01/09 00:10:09;;;;;;;6.82;4.40;;;;;;;;;;5021435;28;20525;-67
2023/01/09 00:12:35;;;;;;;7.20;4.45;;;;;;;;;;5019495;28;20041;-67
2023/01/09 00:15:00;;;;;;;6.47;4.90;;;;;;;;;;5020775;28;20055;-67
2023/01/09 00:17:26;;;;;;;9.05;5.03;;;;;;;;;;5020600;28;20137;-67
2023/01/09 00:19:52;;;;;;;9.02;5.93;;;;;;;;;;5021742;28;20135;-66
2023/01/09 00:22:18;;;;;;;8.80;6.05;;;;;;;;;;5020636;28;20132;-66
2023/01/09 00:24:43;;;;;;;11.07;6.60;;;;;;;;;;5019857;28;20466;-66
2023/01/09 00:27:09;;;;;;;13.43;6.10;;;;;;;;;;5019842;28;20507;-66
2023/01/09 00:29:34;;;;;;;11.07;6.55;;;;;;;;;;5020782;28;20049;-66
2023/01/09 00:32:00;;;;;;;8.75;5.70;;;;;;;;;;5020579;28;20056;-67
2023/01/09 00:34:26;;;;;;;11.07;5.68;;;;;;;;;;5023154;28;20041;-66
2023/01/09 00:36:54;;;;;;;6.93;5.53;;;;;;;;;;5034329;28;20046;-65
2023/01/09 00:39:20;;;;;;;10.55;6.35;;;;;;;;;;5020698;28;20046;-67
2023/01/09 00:41:51;;;;;;;7.78;5.75;;;;;;;;;;5020540;28;20102;-66
2023/01/09 00:44:26;;;;;;;9.55;6.07;;;;;;;;;;5020693;28;20289;-67
2023/01/09 00:47:06;;;;;;;10.60;6.60;;;;;;;;;;5018913;28;20049;-66
2023/01/09 00:49:35;;;;;;;8.15;5.72;;;;;;;;;;5036386;28;20710;-67
2023/01/09 00:52:03;;;;;;;8.75;6.00;;;;;;;;;;5020759;28;20055;-67
2023/01/09 00:54:29;;;;;;;11.35;6.25;;;;;;;;;;5020752;28;20046;-67
2023/01/09 00:56:55;;;;;;;8.70;5.57;;;;;;;;;;5018441;28;20060;-66
2023/01/09 00:59:21;;;;;;;9.27;6.00;;;;;;;;;;5035505;28;20585;-66
2023/01/09 01:01:47;;;;;;;10.65;5.70;;;;;;;;;;5035693;28;20049;-65
2023/01/09 01:09:40;;;;;;;4.07;3.17;;;;;;;;;;5020236;28;20045;-65
2023/01/09 01:12:05;;;;;;;8.50;5.22;;;;;;;;;;5020251;28;20054;-64
2023/01/09 01:14:33;;;;;;;6.93;4.72;;;;;;;;;;5020194;28;20060;-65
2023/01/09 01:16:59;;;;;;;6.35;4.80;;;;;;;;;;5019076;28;20045;-65
2023/01/09 01:19:24;;;;;;;6.93;5.00;;;;;;;;;;5018898;28;20053;-65
2023/01/09 01:21:50;;;;;;;7.22;5.10;;;;;;;;;;5018405;28;20053;-65
2023/01/09 01:24:18;;;;;;;6.93;4.43;;;;;;;;;;5020692;28;20065;-65
2023/01/09 01:26:45;;;;;;;7.28;4.60;;;;;;;;;;5021967;28;20340;-65
2023/01/09 01:29:10;;;;;;;5.82;3.92;;;;;;;;;;5036044;28;20096;-65
2023/01/09 01:31:36;;;;;;;4.93;4.13;;;;;;;;;;5022413;28;20195;-65
2023/01/09 01:34:01;;;;;;;7.43;4.25;;;;;;;;;;5022523;28;20064;-65
2023/01/09 01:36:26;;;;;;;7.28;3.97;;;;;;;;;;5022996;28;20053;-66
2023/01/09 01:38:52;;;;;;;6.50;4.13;;;;;;;;;;5023134;28;20140;-65
2023/01/09 01:41:28;;;;;;;5.25;3.80;;;;;;;;;;5024299;28;20083;-65
2023/01/09 01:43:56;;;;;;;4.70;3.75;;;;;;;;;;5023569;28;20053;-66
2023/01/09 01:46:21;;;;;;;6.78;4.00;;;;;;;;;;5022778;28;20041;-65
2023/01/09 01:48:52;;;;;;;6.25;4.00;;;;;;;;;;5023682;28;20154;-65
2023/01/09 01:51:20;;;;;;;7.18;4.47;;;;;;;;;;5052023;28;20053;-65
2023/01/09 01:53:56;;;;;;;5.80;4.40;;;;;;;;;;5023865;28;20127;-66
2023/01/09 01:56:34;;;;;;;4.80;4.07;;;;;;;;;;5021759;28;20076;-66
2023/01/09 01:59:17;;;;;;;6.95;4.60;;;;;;;;;;5023088;28;20934;-66
2023/01/09 02:01:47;;;;;;;5.22;4.38;;;;;;;;;;5038926;28;20073;-66
2023/01/09 02:04:13;;;;;;;6.85;4.63;;;;;;;;;;5023551;28;20394;-67
2023/01/09 02:06:39;;;;;;;6.57;4.68;;;;;;;;;;5021798;28;20504;-66
2023/01/09 02:09:05;;;;;;;7.15;4.75;;;;;;;;;;5022933;28;20498;-66
2023/01/09 02:11:31;;;;;;;6.07;4.20;;;;;;;;;;5022961;28;20061;-64
2023/01/09 02:13:58;;;;;;;5.15;4.10;;;;;;;;;;5023012;28;20053;-65
2023/01/09 02:16:59;;;;;;;7.80;4.13;;;;;;;;;;5022063;28;20068;-65
2023/01/09 02:20:00;;;;;;;6.10;4.40;;;;;;;;;;5050211;28;20603;-66
2023/01/09 02:22:56;;;;;;;5.55;3.58;;;;;;;;;;4998014;28;20235;-65
2023/01/09 02:25:45;;;;;;;5.78;3.70;;;;;;;;;;5004965;28;20057;-65
2023/01/09 02:28:22;;;;;;;5.47;3.55;;;;;;;;;;5021857;28;20896;-64
2023/01/09 02:30:56;;;;;;;5.35;3.95;;;;;;;;;;5022810;28;20132;-65
2023/01/09 02:33:31;;;;;;;5.80;3.50;;;;;;;;;;5049902;28;20049;-65
2023/01/09 02:36:19;;;;;;;5.13;3.97;;;;;;;;;;5022091;28;20049;-66
2023/01/09 02:39:07;;;;;;;4.60;3.67;;;;;;;;;;5021504;28;20049;-65
2023/01/09 02:41:51;;;;;;;7.07;4.43;;;;;;;;;;5042267;28;20486;-65
2023/01/09 02:44:17;;;;;;;6.57;4.72;;;;;;;;;;5017627;28;20052;-64
2023/01/09 02:46:42;;;;;;;14.82;5.13;;;;;;;;;;5021659;28;20124;-65
2023/01/09 02:49:08;;;;;;;9.43;5.05;;;;;;;;;;5021323;28;20573;-65
2023/01/09 02:51:52;;;;;;;7.80;4.93;;;;;;;;;;5022176;28;20059;-65
2023/01/09 02:54:25;;;;;;;8.73;4.60;;;;;;;;;;5022155;28;20064;-65
2023/01/09 02:56:54;;;;;;;5.38;4.63;;;;;;;;;;5020996;28;20506;-66
2023/01/09 03:00:02;;;;;;;6.93;4.50;;;;;;;;;;5022442;28;20045;-65
2023/01/09 03:02:42;;;;;;;8.15;5.07;;;;;;;;;;5021495;28;20048;-66
2023/01/09 03:05:17;;;;;;;6.32;3.67;;;;;;;;;;5021495;28;20102;-66
2023/01/09 03:07:52;;;;;;;6.35;4.10;;;;;;;;;;5021554;28;20568;-65
2023/01/09 03:10:27;;;;;;;5.60;4.15;;;;;;;;;;5022154;28;20085;-66
2023/01/09 03:12:55;;;;;;;9.05;5.68;;;;;;;;;;5020941;28;20994;-66
2023/01/09 03:15:24;;;;;;;10.43;5.68;;;;;;;;;;5022024;28;20071;-66
2023/01/09 03:17:51;;;;;;;8.88;5.30;;;;;;;;;;5021636;28;20144;-66
2023/01/09 03:20:21;;;;;;;6.40;4.68;;;;;;;;;;5022020;28;20136;-67
2023/01/09 03:22:59;;;;;;;8.55;4.50;;;;;;;;;;5021324;28;20049;-67
2023/01/09 03:25:27;;;;;;;5.50;4.22;;;;;;;;;;5049191;28;20065;-66
2023/01/09 03:28:02;;;;;;;4.38;3.85;;;;;;;;;;5021091;28;20041;-65
2023/01/09 03:30:29;;;;;;;4.57;3.15;;;;;;;;;;5021846;28;20045;-66
2023/01/09 03:32:55;;;;;;;5.88;3.42;;;;;;;;;;5036271;28;20087;-66
2023/01/09 03:35:21;;;;;;;3.88;3.05;;;;;;;;;;5020720;28;20091;-66
2023/01/09 03:37:46;;;;;;;5.18;3.10;;;;;;;;;;5021072;28;20045;-65
2023/01/09 03:40:12;;;;;;;3.55;2.95;;;;;;;;;;5021972;28;20045;-65
2023/01/09 03:42:38;;;;;;;5.22;3.08;;;;;;;;;;5021100;28;20099;-65
2023/01/09 03:45:04;;;;;;;6.43;3.30;;;;;;;;;;5020174;28;21011;-65
2023/01/09 03:47:29;;;;;;;5.78;2.65;;;;;;;;;;5020884;28;20041;-66
2023/01/09 03:49:55;;;;;;;3.67;2.60;;;;;;;;;;5021627;28;20172;-66
2023/01/09 03:52:20;;;;;;;2.92;2.40;;;;;;;;;;5021664;28;20049;-66
2023/01/09 03:54:46;;;;;;;5.40;3.28;;;;;;;;;;5021643;28;20051;-66
2023/01/09 03:57:11;;;;;;;4.38;3.30;;;;;;;;;;5019511;28;20053;-66
2023/01/09 03:59:37;;;;;;;4.85;3.75;;;;;;;;;;5021387;28;20521;-66
2023/01/09 04:02:02;;;;;;;5.20;4.03;;;;;;;;;;5021629;28;20111;-66
2023/01/09 04:04:27;;;;;;;4.90;4.28;;;;;;;;;;5021569;28;20038;-66
2023/01/09 04:06:53;;;;;;;6.05;4.00;;;;;;;;;;5019473;28;20750;-66
2023/01/09 04:09:18;;;;;;;6.18;3.80;;;;;;;;;;5020962;28;20048;-66
2023/01/09 04:11:43;;;;;;;5.75;3.35;;;;;;;;;;5021230;28;20057;-66
2023/01/09 04:14:09;;;;;;;5.30;3.20;;;;;;;;;;5021366;28;20054;-67
2023/01/09 04:16:34;;;;;;;3.85;3.25;;;;;;;;;;5020672;28;20076;-67
2023/01/09 04:19:00;;;;;;;4.95;4.15;;;;;;;;;;5019348;28;20094;-66
2023/01/09 04:21:25;;;;;;;5.72;3.53;;;;;;;;;;5020955;28;20045;-67
2023/01/09 04:23:51;;;;;;;4.60;3.53;;;;;;;;;;5020537;28;20045;-67
2023/01/09 04:26:16;;;;;;;4.35;3.40;;;;;;;;;;5020873;28;20041;-67
2023/01/09 04:28:41;;;;;;;4.72;3.28;;;;;;;;;;5019402;28;20401;-67
2023/01/09 04:31:07;;;;;;;5.40;3.58;;;;;;;;;;5019440;28;20053;-67
2023/01/09 04:33:33;;;;;;;4.53;3.35;;;;;;;;;;5019755;28;20045;-67
2023/01/09 04:35:58;;;;;;;3.83;3.38;;;;;;;;;;5020719;28;20525;-67
2023/01/09 04:38:25;;;;;;;4.43;3.40;;;;;;;;;;5019135;28;20057;-67
2023/01/09 04:40:51;;;;;;;6.38;4.07;;;;;;;;;;5034011;28;20179;-66
2023/01/09 04:43:16;;;;;;;5.10;4.03;;;;;;;;;;5023482;28;20132;-67
2023/01/09 04:45:42;;;;;;;6.10;4.45;;;;;;;;;;5019006;28;20056;-65
2023/01/09 04:48:07;;;;;;;10.20;5.38;;;;;;;;;;5019846;28;20041;-65
2023/01/09 04:50:33;;;;;;;9.85;5.70;;;;;;;;;;5019296;28;20093;-64
2023/01/09 04:52:58;;;;;;;8.82;5.68;;;;;;;;;;5019878;28;20454;-63
2023/01/09 04:55:23;;;;;;;7.28;5.30;;;;;;;;;;5018511;28;20126;-65
2023/01/09 04:57:49;;;;;;;8.68;5.90;;;;;;;;;;5019133;28;20065;-66
2023/01/09 05:00:15;;;;;;;7.35;5.90;;;;;;;;;;5019950;28;20668;-65
2023/01/09 05:02:40;;;;;;;7.50;5.60;;;;;;;;;;5019400;28;20065;-67
2023/01/09 05:05:07;;;;;;;10.50;5.80;;;;;;;;;;5034331;28;20042;-67
2023/01/09 05:07:33;;;;;;;9.32;6.18;;;;;;;;;;5017922;28;20108;-67
2023/01/09 05:09:59;;;;;;;6.15;5.05;;;;;;;;;;5019306;28;20055;-68
2023/01/09 05:12:25;;;;;;;5.97;4.22;;;;;;;;;;5015621;28;20076;-67
2023/01/09 05:14:50;;;;;;;6.50;4.65;;;;;;;;;;5018963;28;20038;-67
2023/01/09 05:17:15;;;;;;;4.35;3.85;;;;;;;;;;5018439;28;20414;-67
2023/01/09 05:19:41;;;;;;;4.70;4.20;;;;;;;;;;5018873;28;20107;-67
2023/01/09 05:22:07;;;;;;;4.93;4.10;;;;;;;;;;5019686;28;20055;-67
2023/01/09 05:24:32;;;;;;;5.03;3.60;;;;;;;;;;5016911;28;20417;-68
2023/01/09 05:26:58;;;;;;;3.25;2.70;;;;;;;;;;5018793;28;20052;-68
2023/01/09 05:29:23;;;;;;;4.78;2.17;;;;;;;;;;5019900;28;20053;-67
2023/01/09 05:31:49;;;;;;;2.20;2.00;;;;;;;;;;5018979;28;20212;-67
2023/01/09 05:34:14;;;;;;;3.95;1.02;;;;;;;;;;5018689;28;20049;-67
2023/01/09 05:36:39;;;;;;;0.73;0.73;;;;;;;;;;5019650;28;20053;-68
2023/01/09 05:39:05;;;;;;;0.65;0.65;;;;;;;;;;5019262;28;20115;-68
2023/01/09 05:41:31;;;;;;;1.00;0.70;;;;;;;;;;5019669;28;20482;-68
2023/01/09 05:43:56;;;;;;;2.38;0.68;;;;;;;;;;5019201;28;20042;-68
2023/01/09 05:46:21;;;;;;;1.45;0.70;;;;;;;;;;5019939;28;20123;-68
2023/01/09 05:48:47;;;;;;;1.98;0.90;;;;;;;;;;5018362;28;20041;-68
2023/01/09 05:51:12;;;;;;;1.23;0.57;;;;;;;;;;5019487;28;20046;-68
2023/01/09 05:53:38;;;;;;;0.52;0.52;;;;;;;;;;5019591;28;20532;-67
2023/01/09 05:56:03;;;;;;;0.60;0.60;;;;;;;;;;5034443;28;20107;-68
2023/01/09 05:58:29;;;;;;;1.35;0.60;;;;;;;;;;5017817;28;20049;-68
2023/01/09 06:00:54;;;;;;;0.77;0.50;;;;;;;;;;5019489;28;20057;-68
2023/01/09 06:03:20;;;;;;;0.57;0.57;;;;;;;;;;5018409;28;20045;-68
2023/01/09 06:05:45;;;;;;;0.50;0.50;;;;;;;;;;5018435;28;20045;-68
2023/01/09 06:08:11;;;;;;;0.73;0.50;;;;;;;;;;5019592;28;20049;-68
2023/01/09 06:10:36;;;;;;;0.30;0.30;;;;;;;;;;5022270;28;20037;-68
2023/01/09 06:13:01;;;;;;;0.50;0.50;;;;;;;;;;5023682;28;20104;-68
2023/01/09 06:15:27;;;;;;;0.80;0.47;;;;;;;;;;5022308;28;20425;-68
2023/01/09 06:17:52;;;;;;;0.22;0.22;;;;;;;;;;5018653;28;20049;-68
2023/01/09 06:20:18;;;;;;;0.30;0.30;;;;;;;;;;5034870;28;20041;-69
2023/01/09 06:22:46;;;;;;;1.08;0.47;;;;;;;;;;5020516;28;20375;-69
2023/01/09 06:25:12;;;;;;;0.32;0.32;;;;;;;;;;5020278;28;20072;-68
2023/01/09 06:27:37;;;;;;;0.20;0.15;;;;;;;;;;5020765;28;20826;-68
2023/01/09 06:30:03;;;;;;;2.50;0.25;;;;;;;;;;5021221;28;20045;-68
2023/01/09 06:32:29;;;;;;;0.40;0.40;;;;;;;;;;5022162;28;20120;-68
2023/01/09 06:34:54;;;;;;;0.20;0.20;;;;;;;;;;5021395;28;20045;-68
2023/01/09 06:37:20;;;;;;;0.20;0.20;;;;;;;;;;5022341;28;20491;-68
2023/01/09 06:39:45;;;;;;;0.20;0.20;;;;;;;;;;5023508;28;20041;-68
2023/01/09 06:42:11;;;;;;;0.20;0.20;;;;;;;;;;5022402;28;20037;-68
2023/01/09 06:44:36;;;;;;;0.20;0.20;;;;;;;;;;5023142;28;21062;-68
2023/01/09 06:47:02;;;;;;;0.20;0.20;;;;;;;;;;5022407;28;20065;-68
2023/01/09 06:49:28;;;;;;;0.20;0.20;;;;;;;;;;5023220;28;20187;-68
2023/01/09 06:51:53;;;;;;;0.22;0.22;;;;;;;;;;5022390;28;20861;-68
2023/01/09 06:54:19;;;;;;;0.20;0.20;;;;;;;;;;5022323;28;20103;-68
2023/01/09 06:56:45;;;;;;;0.17;0.17;;;;;;;;;;5021195;28;20061;-68
2023/01/09 06:59:11;;;;;;;0.10;0.10;;;;;;;;;;5019607;28;20064;-68
2023/01/09 07:01:38;;;;;;;0.20;0.20;;;;;;;;;;5020757;28;20049;-67
2023/01/09 07:04:05;;;;;;;0.20;0.20;;;;;;;;;;5019854;28;20049;-68
2023/01/09 07:06:31;;;;;;;0.30;0.30;;;;;;;;;;5020702;28;20060;-68
2023/01/09 07:08:56;;;;;;;0.20;0.20;;;;;;;;;;5019784;28;20046;-67
2023/01/09 07:11:21;;;;;;;0.20;0.20;;;;;;;;;;5021031;28;20683;-67
2023/01/09 07:13:47;;;;;;;0.30;0.30;;;;;;;;;;5021903;28;20132;-68
2023/01/09 07:16:12;;;;;;;0.10;0.10;;;;;;;;;;5022382;28;20781;-68
2023/01/09 07:18:38;;;;;;;0.20;0.20;;;;;;;;;;5021489;28;20091;-67
2023/01/09 07:21:05;;;;;;;0.20;0.13;;;;;;;;;;5021281;28;20084;-68
2023/01/09 07:23:31;;;;;;;0.30;0.30;;;;;;;;;;5013578;28;20084;-68
2023/01/09 07:25:58;;;;;;;0.20;0.20;;;;;;;;;;5019102;28;20045;-68
2023/01/09 07:28:24;;;;;;;0.20;0.20;;;;;;;;;;5021185;28;20171;-68
2023/01/09 07:30:49;;;;;;;0.20;0.20;;;;;;;;;;5023649;28;20449;-68
2023/01/09 07:33:15;;;;;;;0.10;0.10;;;;;;;;;;5022505;28;20189;-68
2023/01/09 07:35:41;;;;;;;0.10;0.10;;;;;;;;;;5022962;28;20057;-68
2023/01/09 07:38:06;;;;;;;0.20;0.20;;;;;;;;;;5021754;28;20069;-67
2023/01/09 07:40:32;;;;;;;0.40;0.40;;;;;;;;;;5023339;28;20116;-67
2023/01/09 07:42:58;;;;;;;0.25;0.25;;;;;;;;;;5022872;28;20053;-67
2023/01/09 07:45:23;;;;;;;0.30;0.30;;;;;;;;;;5023093;28;20041;-67
2023/01/09 07:47:51;;;;;;;0.20;0.20;;;;;;;;;;5037793;28;20140;-68
2023/01/09 07:50:17;;;;;;;0.45;0.40;;;;;;;;;;5023229;28;20558;-68
2023/01/09 07:52:44;;;;;;;0.30;0.30;;;;;;;;;;5022574;28;20047;-67
2023/01/09 07:55:10;;;;;;;0.30;0.30;;;;;;;;;;5021066;28;20801;-67
2023/01/09 07:57:35;;;;;;;0.30;0.30;;;;;;;;;;5021978;28;20049;-70
2023/01/09 08:00:02;;;;;;;0.30;0.30;;;;;;;;;;5021993;28;20283;-69
2023/01/09 08:02:36;;;;;;;0.30;0.30;;;;;;;;;;5022905;28;20045;-69
2023/01/09 08:05:02;;;;;;;0.20;0.20;;;;;;;;;;5021893;28;20045;-70
2023/01/09 08:07:28;;;;;;;0.60;0.45;;;;;;;;;;5020233;28;20498;-69
2023/01/09 08:09:54;;;;;;;0.10;0.10;;;;;;;;;;5020485;28;20056;-69
2023/01/09 08:12:19;;;;;;;0.30;0.30;;;;;;;;;;5021705;28;20045;-69
2023/01/09 08:14:45;;;;;;;0.13;0.13;;;;;;;;;;5020740;28;20124;-69
2023/01/09 08:17:10;;;;;;;0.43;0.40;;;;;;;;;;5020384;28;20057;-69
2023/01/09 08:19:36;;;;;;;0.77;0.45;;;;;;;;;;5022028;28;20145;-69
2023/01/09 08:22:02;;;;;;;0.20;0.20;;;;;;;;;;5020699;28;20494;-69
2023/01/09 08:24:28;;;;;;;1.27;0.20;;;;;;;;;;5022041;28;20056;-69
2023/01/09 08:26:54;;;;;;;0.30;0.28;;;;;;;;;;5020736;28;20103;-70
2023/01/09 08:29:19;;;;;;;0.20;0.20;;;;;;;;;;5020364;28;20053;-69
2023/01/09 08:31:45;;;;;;;1.00;0.60;;;;;;;;;;5020766;28;20037;-69
2023/01/09 08:34:10;;;;;;;0.38;0.38;;;;;;;;;;5020056;28;20053;-69
2023/01/09 08:36:36;;;;;;;0.60;0.40;;;;;;;;;;5020624;28;20054;-70
2023/01/09 08:39:01;;;;;;;0.28;0.28;;;;;;;;;;5019250;28;20052;-71
2023/01/09 08:47:07;;;;;;;0.25;0.25;;;;;;;;;;5019066;28;20045;-69
2023/01/09 08:49:35;;;;;;;0.30;0.30;;;;;;;;;;5019449;28;20128;-69
2023/01/09 08:52:00;;;;;;;0.50;0.50;;;;;;;;;;5020086;28;20457;-68
2023/01/09 08:54:26;;;;;;;5.78;1.40;;;;;;;;;;5034510;28;20063;-69
2023/01/09 08:56:51;;;;;;;1.08;0.60;;;;;;;;;;5020117;28;20560;-70
2023/01/09 08:59:17;;;;;;;0.47;0.47;;;;;;;;;;5020148;28;20592;-69
2023/01/09 09:01:42;;;;;;;1.00;0.50;;;;;;;;;;5020204;28;20044;-69
2023/01/09 09:04:08;;;;;;;0.35;0.30;;;;;;;;;;5020234;28;20099;-70
2023/01/09 09:06:33;;;;;;;0.70;0.60;;;;;;;;;;5020751;28;20560;-69
2023/01/09 09:09:02;;;;;;;0.22;0.22;;;;;;;;;;5019825;28;20057;-69
2023/01/09 09:11:34;;;;;;;0.17;0.17;;;;;;;;;;5020688;28;20560;-68
2023/01/09 09:14:00;;;;;;;2.22;0.80;;;;;;;;;;5019537;28;20454;-69
2023/01/09 09:16:25;;;;;;;0.90;0.50;;;;;;;;;;5017960;28;20172;-69
2023/01/09 09:18:51;;;;;;;0.40;0.40;;;;;;;;;;5018508;28;20136;-69
2023/01/09 09:21:16;;;;;;;3.55;0.70;;;;;;;;;;5019496;28;20053;-67
2023/01/09 09:23:43;;;;;;;0.40;0.32;;;;;;;;;;5020092;28;20532;-67
2023/01/09 09:26:09;;;;;;;0.40;0.40;;;;;;;;;;5018491;28;20556;-67
2023/01/09 09:28:34;;;;;;;1.77;0.47;;;;;;;;;;5018304;28;20873;-68
2023/01/09 09:31:00;;;;;;;0.52;0.52;;;;;;;;;;5019128;28;20052;-68
2023/01/09 09:33:25;;;;;;;0.40;0.40;;;;;;;;;;5019649;28;20418;-68
2023/01/09 09:35:51;;;;;;;2.65;0.65;;;;;;;;;;5020509;28;20431;-68
2023/01/09 09:38:16;;;;;;;5.32;1.05;;;;;;;;;;5019034;28;20053;-67
2023/01/09 09:41:06;;;;;;;0.55;0.35;;;;;;;;;;5036472;28;20037;-68
2023/01/09 09:46:44;;;;;;;0.30;0.30;;;;;;;;;;5024209;28;20136;-68
2023/01/09 09:49:55;;;;;;;0.63;0.50;;;;;;;;;;5022199;28;20057;-67
2023/01/09 09:52:50;;;;;;;4.47;0.90;;;;;;;;;;5023692;28;20144;-67
2023/01/09 09:55:25;;;;;;;2.85;0.40;;;;;;;;;;5022137;28;20483;-67
2023/01/09 09:57:51;;;;;;;2.15;0.60;;;;;;;;;;5023335;28;20191;-67
2023/01/09 10:00:20;;;;;;;0.40;0.40;;;;;;;;;;5023849;28;20186;-67
2023/01/09 10:02:50;;;;;;;1.15;0.40;;;;;;;;;;5022275;28;20578;-67
2023/01/09 10:05:26;;;;;;;2.80;0.40;;;;;;;;;;5024213;28;20053;-67
2023/01/09 10:07:52;;;;;;;0.70;0.30;;;;;;;;;;5024146;28;20122;-69
2023/01/09 10:10:34;;;;;;;0.25;0.20;;;;;;;;;;5023486;28;20486;-69
2023/01/09 10:14:03;;;;;;;0.32;0.32;;;;;;;;;;5023590;28;20998;-69
2023/01/09 10:16:11;;;;;;;1.50;0.50;;;;;;;;;;5024565;28;20052;-67
2023/01/09 10:18:51;;;;;;;0.32;0.32;;;;;;;;;;5022338;28;20041;-67
2023/01/09 10:21:28;;;;;;;0.55;0.40;;;;;;;;;;5022969;28;20072;-69
2023/01/09 10:24:11;;;;;;;0.30;0.30;;;;;;;;;;5023935;28;20068;-67
2023/01/09 10:26:42;;;;;;;0.65;0.30;;;;;;;;;;5023166;28;20049;-67
2023/01/09 10:29:20;;;;;;;3.20;0.40;;;;;;;;;;5023175;28;20474;-67
2023/01/09 10:31:58;;;;;;;2.03;0.75;;;;;;;;;;5023081;28;20489;-68
2023/01/09 10:35:00;;;;;;;0.80;0.40;;;;;;;;;;5022964;28;21058;-66
2023/01/09 10:37:32;;;;;;;1.30;0.40;;;;;;;;;;5041543;28;20049;-66
2023/01/09 10:40:05;;;;;;;0.73;0.40;;;;;;;;;;5024752;28;20045;-70
2023/01/09 10:42:46;;;;;;;3.13;0.65;;;;;;;;;;5022533;28;20045;-69
2023/01/09 10:45:18;;;;;;;0.77;0.28;;;;;;;;;;5022553;28;20141;-69
2023/01/09 10:47:43;;;;;;;;;;;;;;;;;;5023337;28;20703;-69
2023/01/09 10:50:25;;;;;;;1.25;0.50;;;;;;;;;;5023389;28;19928;-69
2023/01/09 10:52:53;;;;;;;2.28;0.75;;;;;;;;;;5024847;28;20041;-69
2023/01/09 10:55:34;;;;;;;1.17;0.38;;;;;;;;;;5021605;28;20057;-69
2023/01/09 10:58:10;;;;;;;1.60;0.50;;;;;;;;;;5021519;28;20065;-69
2023/01/09 11:00:37;;;;;;;0.60;0.60;;;;;;;;;;5023543;28;20059;-69
2023/01/09 11:03:02;;;;;;;0.38;0.30;;;;;;;;;;5023578;28;20076;-69
2023/01/09 11:05:29;;;;;;;0.77;0.45;;;;;;;;;;5021888;28;20129;-69
2023/01/09 11:08:07;;;;;;;5.80;0.80;;;;;;;;;;5022202;28;20588;-67
2023/01/09 11:10:53;;;;;;;1.77;0.60;;;;;;;;;;5023737;28;20041;-67
2023/01/09 11:13:33;;;;;;;1.95;0.80;;;;;;;;;;5022479;28;20041;-67
2023/01/09 11:16:08;;;;;;;3.35;0.70;;;;;;;;;;5022254;28;20041;-68
2023/01/09 11:18:37;;;;;;;2.38;0.55;;;;;;;;;;5022185;28;20064;-66
2023/01/09 11:21:24;;;;;;;1.00;0.52;;;;;;;;;;5022514;28;20046;-69
2023/01/09 11:23:50;;;;;;;1.83;0.63;;;;;;;;;;5022887;28;20457;-67
2023/01/09 11:26:24;;;;;;;2.20;0.73;;;;;;;;;;5020714;28;20053;-69
2023/01/09 11:29:10;;;;;;;3.35;0.98;;;;;;;;;;5021485;28;20037;-70
2023/01/09 11:31:36;;;;;;;7.82;0.60;;;;;;;;;;5040813;28;20057;-67
2023/01/09 11:34:02;;;;;;;0.77;0.55;;;;;;;;;;5022796;28;20049;-68
2023/01/09 11:36:29;;;;;;;2.65;0.70;;;;;;;;;;5022097;28;20090;-67
2023/01/09 11:38:56;;;;;;;0.88;0.30;;;;;;;;;;5021070;28;20089;-67
2023/01/09 11:41:42;;;;;;;1.83;0.47;;;;;;;;;;5022605;28;20064;-68
2023/01/09 11:44:14;;;;;;;0.75;0.43;;;;;;;;;;5022577;28;20160;-67
2023/01/09 11:46:42;;;;;;;0.35;0.30;;;;;;;;;;5021764;28;20406;-67
2023/01/09 11:49:13;;;;;;;4.85;0.70;;;;;;;;;;5008567;28;20095;-67
2023/01/09 11:51:40;;;;;;;1.90;0.77;;;;;;;;;;5022025;28;20045;-68
2023/01/09 11:54:17;;;;;;;2.53;0.70;;;;;;;;;;5016571;28;21174;-69
2023/01/09 11:56:44;;;;;;;5.57;0.63;;;;;;;;;;5019332;28;20053;-71
2023/01/09 11:59:17;;;;;;;3.90;0.55;;;;;;;;;;5018288;28;20053;-71
2023/01/09 12:01:42;;;;;;;;;;;;;;;;;;5020823;28;20530;-68
2023/01/09 12:04:27;;;;;;;2.13;0.60;;;;;;;;;;5021546;28;20008;-71
2023/01/09 12:07:05;;;;;;;0.55;0.28;;;;;;;;;;5020554;28;20057;-70
2023/01/09 12:09:40;;;;;;;2.80;0.45;;;;;;;;;;5045680;28;20041;-67
2023/01/09 12:12:11;;;;;;;1.60;0.60;;;;;;;;;;5020874;28;20099;-67
2023/01/09 12:15:00;;;;;;;1.97;0.47;;;;;;;;;;5021544;28;20049;-68
2023/01/09 12:17:34;;;;;;;0.40;0.30;;;;;;;;;;5042317;28;20395;-68
2023/01/09 12:20:26;;;;;;;0.50;0.35;;;;;;;;;;5036323;28;20053;-68
2023/01/09 12:22:56;;;;;;;0.73;0.30;;;;;;;;;;5017406;28;20409;-68
2023/01/09 12:25:45;;;;;;;3.65;0.80;;;;;;;;;;5020546;28;20046;-68
2023/01/09 12:28:29;;;;;;;2.30;0.50;;;;;;;;;;5020890;28;20541;-68
2023/01/09 12:31:05;;;;;;;1.58;0.40;;;;;;;;;;5021728;28;20049;-66
2023/01/09 12:34:04;;;;;;;0.30;0.20;;;;;;;;;;5021295;28;20052;-66
2023/01/09 12:36:31;;;;;;;1.52;0.60;;;;;;;;;;5022032;28;20144;-68
2023/01/09 12:39:36;;;;;;;0.80;0.30;;;;;;;;;;5020854;28;20136;-67
2023/01/09 12:42:18;;;;;;;1.15;0.40;;;;;;;;;;5020099;28;20086;-67
2023/01/09 12:44:58;;;;;;;0.50;0.50;;;;;;;;;;5018002;28;20107;-67
2023/01/09 12:47:42;;;;;;;0.50;0.47;;;;;;;;;;5046769;28;20092;-67
2023/01/09 12:50:19;;;;;;;4.13;0.65;;;;;;;;;;5026604;28;20045;-66
2023/01/09 12:52:51;;;;;;;0.40;0.38;;;;;;;;;;5019645;28;20049;-67
2023/01/09 12:55:23;;;;;;;3.33;0.52;;;;;;;;;;5033554;28;20061;-66
2023/01/09 12:57:55;;;;;;;1.48;0.47;;;;;;;;;;5019552;28;20056;-67
2023/01/09 13:00:34;;;;;;;3.85;0.40;;;;;;;;;;5020766;28;20098;-67
2023/01/09 13:03:22;;;;;;;;;;;;;;;;;;5021544;28;20073;-67
2023/01/09 13:05:50;;;;;;;4.55;0.80;;;;;;;;;;5018733;28;19925;-67
2023/01/09 13:08:28;;;;;;;1.08;0.50;;;;;;;;;;5019703;28;20037;-68
2023/01/09 13:11:04;;;;;;;2.40;0.75;;;;;;;;;;5027436;28;20045;-68
2023/01/09 13:13:35;;;;;;;1.67;0.50;;;;;;;;;;5021061;28;20803;-67
2023/01/09 13:16:07;;;;;;;3.47;0.63;;;;;;;;;;5020990;28;20622;-68
2023/01/09 13:18:44;;;;;;;0.55;0.40;;;;;;;;;;5019390;28;20072;-68
2023/01/09 13:21:12;;;;;;;3.13;0.70;;;;;;;;;;5025942;28;20055;-67
2023/01/09 13:24:15;;;;;;;1.13;0.52;;;;;;;;;;5025618;28;20132;-67
2023/01/09 13:26:56;;;;;;;0.60;0.28;;;;;;;;;;5025426;28;20041;-67
2023/01/09 13:29:31;;;;;;;1.23;0.40;;;;;;;;;;5012730;28;20084;-67
2023/01/09 13:32:18;;;;;;;0.40;0.40;;;;;;;;;;5026102;28;20800;-68
2023/01/09 13:34:52;;;;;;;3.22;0.60;;;;;;;;;;5024946;28;20041;-67
2023/01/09 13:37:35;;;;;;;1.55;0.43;;;;;;;;;;5025467;28;20057;-67
2023/01/09 13:40:04;;;;;;;0.43;0.28;;;;;;;;;;5023297;28;20053;-68
2023/01/09 13:42:37;;;;;;;3.72;0.60;;;;;;;;;;5024673;28;20088;-67
2023/01/09 13:45:24;;;;;;;0.93;0.45;;;;;;;;;;5024024;28;20041;-68
2023/01/09 13:48:16;;;;;;;1.98;0.50;;;;;;;;;;5020969;28;20065;-67
2023/01/09 13:50:43;;;;;;;1.05;0.40;;;;;;;;;;5017600;28;20037;-68
2023/01/09 13:53:17;;;;;;;1.45;0.43;;;;;;;;;;5027753;28;20048;-68
2023/01/09 13:55:57;;;;;;;1.08;0.38;;;;;;;;;;5024061;28;20077;-68
2023/01/09 13:58:49;;;;;;;2.00;0.52;;;;;;;;;;5023612;28;20147;-67
2023/01/09 14:01:39;;;;;;;1.20;0.70;;;;;;;;;;5016763;28;20049;-67
2023/01/09 14:04:10;;;;;;;0.30;0.30;;;;;;;;;;5016563;28;20045;-67
2023/01/09 14:06:36;;;;;;;0.65;0.40;;;;;;;;;;5019211;28;20053;-68
2023/01/09 14:09:18;;;;;;;2.67;0.60;;;;;;;;;;5036282;28;20045;-67
2023/01/09 14:11:44;;;;;;;1.27;0.68;;;;;;;;;;5020370;28;20042;-67
2023/01/09 14:14:25;;;;;;;1.20;0.60;;;;;;;;;;5023158;28;20589;-66
2023/01/09 14:16:51;;;;;;;1.63;0.70;;;;;;;;;;5021761;28;20441;-69
2023/01/09 14:19:28;;;;;;;5.35;0.80;;;;;;;;;;5020668;28;20497;-66
2023/01/09 14:21:56;;;;;;;1.35;0.55;;;;;;;;;;5023034;28;20195;-66
2023/01/09 14:24:51;;;;;;;1.10;0.50;;;;;;;;;;5037264;28;20053;-67
2023/01/09 14:27:54;;;;;;;3.88;0.75;;;;;;;;;;5020690;28;20131;-66
2023/01/09 14:30:25;;;;;;;0.85;0.40;;;;;;;;;;5022236;28;20042;-67
2023/01/09 14:33:15;;;;;;;1.55;0.50;;;;;;;;;;5036539;28;20152;-67
2023/01/09 14:36:03;;;;;;;0.82;0.32;;;;;;;;;;5049371;28;20045;-67
2023/01/09 14:38:53;;;;;;;2.28;0.60;;;;;;;;;;5020591;28;20501;-67
2023/01/09 14:44:18;;;;;;;1.02;0.70;;;;;;;;;;5009598;28;20128;-67
2023/01/09 14:46:45;;;;;;;1.17;0.57;;;;;;;;;;5033676;28;20713;-68
2023/01/09 14:49:18;;;;;;;2.08;1.00;;;;;;;;;;5016507;28;20041;-67
2023/01/09 14:51:45;;;;;;;1.75;0.95;;;;;;;;;;5019953;28;20045;-68
2023/01/09 14:54:27;;;;;;;0.85;0.43;;;;;;;;;;5036819;28;20909;-68
2023/01/09 14:56:53;;;;;;;3.53;1.33;;;;;;;;;;5020059;28;20466;-67
2023/01/09 14:59:18;;;;;;;6.53;1.48;;;;;;;;;;5035217;28;20061;-68
2023/01/09 15:01:48;;;;;;;2.13;1.20;;;;;;;;;;5020984;28;20041;-68
2023/01/09 15:04:23;;;;;;;2.00;1.30;;;;;;;;;;5021355;28;20053;-67
2023/01/09 15:06:49;;;;;;;6.10;1.92;;;;;;;;;;5018312;28;20107;-67
2023/01/09 15:09:14;;;;;;;4.63;1.83;;;;;;;;;;5018934;28;20473;-66
2023/01/09 15:11:41;;;;;;;5.43;1.83;;;;;;;;;;5019492;28;20128;-66
2023/01/09 15:14:09;;;;;;;3.15;1.33;;;;;;;;;;5021148;28;20160;-66
2023/01/09 15:16:34;;;;;;;4.60;1.58;;;;;;;;;;5020863;28;20049;-67
2023/01/09 15:19:06;;;;;;;4.18;1.65;;;;;;;;;;5026131;28;20045;-67
2023/01/09 15:21:31;;;;;;;3.38;1.60;;;;;;;;;;5021503;28;20076;-66